Waldo, Wisconsin
Current Conditions -  °F | °C
As of 4:53 PM on Saturday 22 Nov 2014 (Local Time) from KSBM Reporting Station
Haze Haze  
Wind Chill: 38°   Ceiling: 600
Heat Index: 43°   Visibility: 6mi
Dew Point: 40°   Wind: 8mph
Humidity: 89%   Direction: 230°SW
Pressure: 29.78"   Gusts: NA
Location:  43.67°N, 87.95°W
Report Text: KSBM 222253Z AUTO 23007KT 6SM BR OVC006 06/04 A2978 RMK AO2 SLP091 T00610044
Loading
Personal Weather Stations






























Interactive Weather Map New forecast layout! Learn more

10-Day Weather Forecast

Advertisements
Track Severe Weather on mobile